createdAt,value
2022-11-10T00:02:19.501Z,8.77
2022-11-10T00:05:40.236Z,8.86
2022-11-10T00:09:00.576Z,9.00
2022-11-10T00:12:22.520Z,9.03
2022-11-10T00:16:01.728Z,9.05
2022-11-10T00:19:21.769Z,9.04
2022-11-10T00:22:42.019Z,9.11
2022-11-10T00:26:02.950Z,9.09
2022-11-10T00:29:23.606Z,9.21
2022-11-10T00:32:44.110Z,9.29
2022-11-10T00:36:05.518Z,9.33
2022-11-10T00:39:25.761Z,9.30
2022-11-10T00:42:46.095Z,9.32
2022-11-10T00:46:06.624Z,9.38
2022-11-10T00:49:27.524Z,9.34
2022-11-10T00:52:47.955Z,9.30
2022-11-10T00:56:08.455Z,9.46
2022-11-10T00:59:28.774Z,9.48
2022-11-10T01:02:49.097Z,9.56
2022-11-10T01:06:12.367Z,9.64
2022-11-10T01:09:32.823Z,9.58
2022-11-10T01:12:53.467Z,9.60
2022-11-10T01:16:19.741Z,9.51
2022-11-10T01:19:42.347Z,9.54
2022-11-10T01:23:02.990Z,9.61
2022-11-10T01:26:24.158Z,9.61
2022-11-10T01:29:44.400Z,9.61
2022-11-10T01:33:04.502Z,9.64
2022-11-10T01:36:24.944Z,9.56
2022-11-10T01:39:45.249Z,9.51
2022-11-10T01:43:05.291Z,9.69
2022-11-10T01:46:26.560Z,9.65
2022-11-10T01:49:46.679Z,9.55
2022-11-10T01:53:12.224Z,9.58
2022-11-10T01:56:35.549Z,9.57
2022-11-10T01:59:55.883Z,9.55
2022-11-10T02:03:35.132Z,9.49
2022-11-10T02:06:55.687Z,9.47
2022-11-10T02:10:19.026Z,9.53
2022-11-10T02:13:39.271Z,9.53
2022-11-10T02:16:59.842Z,9.44
2022-11-10T02:20:21.501Z,9.48
2022-11-10T02:23:45.298Z,9.43
2022-11-10T02:27:05.738Z,9.55
2022-11-10T02:30:27.826Z,9.65
2022-11-10T02:33:48.283Z,9.71
2022-11-10T02:37:10.384Z,9.67
2022-11-10T02:40:30.721Z,9.60
2022-11-10T02:43:52.105Z,9.42
2022-11-10T02:47:12.651Z,9.38
2022-11-10T02:50:32.757Z,9.45
2022-11-10T02:53:53.019Z,9.40
2022-11-10T02:57:15.438Z,9.36
2022-11-10T03:00:35.718Z,9.38
2022-11-10T03:03:55.832Z,9.26
2022-11-10T03:07:16.260Z,9.31
2022-11-10T03:10:36.816Z,9.23
2022-11-10T03:14:03.019Z,9.22
2022-11-10T03:17:23.748Z,9.27
2022-11-10T03:20:48.876Z,9.22
2022-11-10T03:24:09.510Z,9.23
2022-11-10T03:27:29.958Z,9.19
2022-11-10T03:30:51.032Z,9.24
2022-11-10T03:34:11.445Z,9.24
2022-11-10T03:37:31.555Z,9.24
2022-11-10T03:41:17.667Z,9.27
2022-11-10T03:44:32.325Z,9.29
2022-11-10T03:47:52.833Z,9.30
2022-11-10T03:51:13.422Z,9.26
2022-11-10T03:54:33.995Z,9.22
2022-11-10T03:57:54.275Z,9.17
2022-11-10T04:01:14.635Z,9.11
2022-11-10T04:04:54.072Z,9.16
2022-11-10T04:08:34.506Z,8.99
2022-11-10T04:12:13.696Z,9.05
2022-11-10T04:15:42.335Z,9.09
2022-11-10T04:19:02.729Z,9.24
2022-11-10T04:22:41.733Z,9.17
2022-11-10T04:26:26.130Z,9.28
2022-11-10T04:29:46.253Z,9.39
2022-11-10T04:33:06.602Z,9.45
2022-11-10T04:36:29.371Z,9.47
2022-11-10T04:39:49.433Z,9.52
2022-11-10T04:43:09.484Z,9.56
2022-11-10T04:46:30.689Z,9.64
2022-11-10T04:49:51.870Z,9.68
2022-11-10T04:53:12.840Z,9.65
2022-11-10T04:56:34.802Z,9.67
2022-11-10T04:59:55.200Z,9.70
2022-11-10T05:03:15.684Z,9.73
2022-11-10T05:06:36.116Z,9.74
2022-11-10T05:09:56.861Z,9.60
2022-11-10T05:13:17.084Z,9.40
2022-11-10T05:16:38.129Z,9.40
2022-11-10T05:19:58.848Z,9.33
2022-11-10T05:23:39.369Z,9.34
2022-11-10T05:26:59.784Z,9.17
2022-11-10T05:30:20.347Z,9.00
2022-11-10T05:33:41.275Z,8.84
2022-11-10T05:37:01.762Z,8.75
2022-11-10T05:40:22.781Z,8.64
2022-11-10T05:43:49.192Z,8.57
2022-11-10T05:47:09.442Z,8.54
2022-11-10T05:50:29.786Z,8.47
2022-11-10T05:53:50.364Z,8.48
2022-11-10T05:57:10.653Z,8.42
2022-11-10T06:00:31.887Z,8.47
2022-11-10T06:03:52.612Z,8.61
2022-11-10T06:07:13.623Z,8.53
2022-11-10T06:10:35.305Z,8.56
2022-11-10T06:13:56.046Z,8.67
2022-11-10T06:17:16.478Z,8.71
2022-11-10T06:20:37.592Z,8.73
2022-11-10T06:23:58.255Z,8.75
2022-11-10T06:27:19.282Z,8.96
2022-11-10T06:30:40.221Z,8.91
2022-11-10T06:34:01.506Z,8.95
2022-11-10T06:37:24.886Z,8.94
2022-11-10T06:40:45.651Z,8.82
2022-11-10T06:44:06.778Z,8.87
2022-11-10T06:47:27.737Z,8.89
2022-11-10T06:50:48.346Z,8.89
2022-11-10T06:54:09.760Z,8.99
2022-11-10T06:57:30.291Z,9.12
2022-11-10T07:00:51.301Z,9.07
2022-11-10T07:04:19.712Z,9.07
2022-11-10T07:07:41.730Z,9.23
2022-11-10T07:11:04.527Z,9.22
2022-11-10T07:14:26.326Z,9.11
2022-11-10T07:17:47.422Z,9.21
2022-11-10T07:21:08.382Z,9.40
2022-11-10T07:24:30.546Z,9.40
2022-11-10T07:28:05.352Z,9.43
2022-11-10T07:31:25.973Z,9.34
2022-11-10T07:34:46.929Z,9.49
2022-11-10T07:38:12.729Z,9.39
2022-11-10T07:41:33.460Z,9.33
2022-11-10T07:44:54.300Z,9.35
2022-11-10T07:48:14.847Z,9.40
2022-11-10T07:51:35.331Z,9.37
2022-11-10T07:54:56.830Z,9.41
2022-11-10T07:58:18.638Z,9.54
2022-11-10T08:01:39.811Z,9.50
2022-11-10T08:05:00.603Z,9.50
2022-11-10T08:08:21.289Z,9.55
2022-11-10T08:11:41.823Z,9.68
2022-11-10T08:15:03.494Z,9.54
2022-11-10T08:18:25.683Z,9.72
2022-11-10T08:21:48.440Z,9.66
2022-11-10T08:25:09.762Z,9.69
2022-11-10T08:28:30.462Z,9.71
2022-11-10T08:31:55.096Z,9.75
2022-11-10T08:35:16.016Z,9.77
2022-11-10T08:38:36.707Z,9.86
2022-11-10T08:42:00.239Z,10.12
2022-11-10T08:45:22.373Z,10.39
2022-11-10T08:48:43.243Z,10.77
2022-11-10T08:52:04.617Z,10.70
2022-11-10T08:55:25.031Z,10.76
2022-11-10T08:58:53.320Z,10.72
2022-11-10T09:02:17.158Z,10.75
2022-11-10T09:05:39.993Z,10.49
2022-11-10T09:09:00.535Z,10.45
2022-11-10T09:12:30.349Z,10.67
2022-11-10T09:15:54.175Z,10.87
2022-11-10T09:19:19.848Z,10.72
2022-11-10T09:22:41.399Z,10.73
2022-11-10T09:26:01.794Z,10.68
2022-11-10T09:29:26.286Z,10.74
2022-11-10T09:32:47.470Z,10.82
2022-11-10T09:36:09.258Z,10.83
2022-11-10T09:39:33.187Z,10.76
2022-11-10T09:43:04.374Z,10.99
2022-11-10T09:46:29.831Z,10.93
2022-11-10T09:50:01.556Z,10.93
2022-11-10T09:53:29.624Z,10.84
2022-11-10T09:56:51.913Z,10.78
2022-11-10T10:00:27.203Z,10.70
2022-11-10T10:03:55.871Z,10.76
2022-11-10T10:07:23.168Z,10.77
2022-11-10T10:10:47.927Z,10.78
2022-11-10T10:14:17.645Z,10.74
2022-11-10T10:17:46.289Z,10.83
2022-11-10T10:21:28.590Z,10.85
2022-11-10T10:24:53.784Z,10.74
2022-11-10T10:28:26.463Z,10.97
2022-11-10T10:31:52.610Z,10.86
2022-11-10T10:35:18.090Z,11.09
2022-11-10T10:38:44.308Z,10.95
2022-11-10T10:42:16.758Z,11.06
2022-11-10T10:45:42.601Z,11.01
2022-11-10T10:53:13.316Z,10.89
2022-11-10T10:56:38.863Z,11.09
2022-11-10T11:00:21.735Z,11.12
2022-11-10T11:03:50.859Z,11.15
2022-11-10T11:07:23.619Z,11.15
2022-11-10T11:10:46.047Z,11.35
2022-11-10T11:14:27.629Z,11.23
2022-11-10T11:18:00.194Z,11.34
2022-11-10T11:21:33.593Z,11.29
2022-11-10T11:25:23.446Z,11.10
2022-11-10T11:29:03.839Z,11.16
2022-11-10T11:32:35.189Z,11.42
2022-11-10T11:36:08.110Z,11.55
2022-11-10T11:39:37.765Z,11.43
2022-11-10T11:43:20.915Z,11.37
2022-11-10T11:47:08.720Z,11.33
2022-11-10T11:50:51.085Z,11.50
2022-11-10T11:54:29.641Z,11.60
2022-11-10T11:58:00.526Z,11.42
2022-11-10T12:01:43.447Z,11.20
2022-11-10T12:05:38.871Z,11.15
2022-11-10T12:09:10.793Z,11.43
2022-11-10T12:12:57.796Z,11.30
2022-11-10T12:16:29.018Z,11.30
2022-11-10T12:20:15.358Z,11.29
2022-11-10T12:23:45.825Z,11.18
2022-11-10T12:27:22.494Z,11.46
2022-11-10T12:30:44.463Z,11.29
2022-11-10T12:34:32.593Z,11.27
2022-11-10T12:38:02.103Z,11.30
2022-11-10T12:41:24.767Z,11.04
2022-11-10T12:44:57.420Z,10.87
2022-11-10T12:48:26.698Z,10.74
2022-11-10T12:52:12.003Z,10.75
2022-11-10T12:55:39.383Z,11.07
2022-11-10T12:59:18.922Z,11.22
2022-11-10T13:02:43.116Z,11.47
2022-11-10T13:06:22.429Z,11.43
2022-11-10T13:09:44.135Z,11.34
2022-11-10T13:13:15.126Z,11.39
2022-11-10T13:16:41.917Z,11.40
2022-11-10T13:20:20.811Z,11.32
2022-11-10T13:23:48.849Z,11.33
2022-11-10T13:27:32.710Z,11.24
2022-11-10T13:30:53.565Z,11.18
2022-11-10T13:34:33.375Z,11.17
2022-11-10T13:37:54.360Z,11.12
2022-11-10T13:41:18.055Z,11.07
2022-11-10T13:44:42.538Z,11.04
2022-11-10T13:48:13.261Z,11.09
2022-11-10T13:51:58.753Z,11.02
2022-11-10T13:55:40.749Z,10.93
2022-11-10T13:59:01.657Z,10.85
2022-11-10T14:02:34.702Z,10.82
2022-11-10T14:05:57.509Z,10.86
2022-11-10T14:09:23.503Z,10.80
2022-11-10T14:12:51.656Z,10.84
2022-11-10T14:16:21.734Z,10.76
2022-11-10T14:19:51.077Z,10.63
2022-11-10T14:23:32.261Z,10.45
2022-11-10T14:26:55.247Z,10.50
2022-11-10T14:30:25.022Z,10.53
2022-11-10T14:33:57.025Z,10.46
2022-11-10T14:37:26.021Z,10.50
2022-11-10T14:40:47.006Z,10.39
2022-11-10T14:44:11.611Z,10.39
2022-11-10T14:47:32.070Z,10.41
2022-11-10T14:50:53.739Z,10.40
2022-11-10T14:54:19.094Z,10.36
2022-11-10T14:57:40.472Z,10.28
2022-11-10T15:01:05.364Z,10.08
2022-11-10T15:04:28.964Z,10.09
2022-11-10T15:07:54.402Z,9.95
2022-11-10T15:11:34.819Z,9.87
2022-11-10T15:15:00.701Z,9.89
2022-11-10T15:18:30.442Z,9.82
2022-11-10T15:21:50.978Z,9.67
2022-11-10T15:25:17.648Z,9.44
2022-11-10T15:28:42.395Z,9.39
2022-11-10T15:32:03.249Z,9.31
2022-11-10T15:35:23.989Z,9.44
2022-11-10T15:38:44.598Z,9.30
2022-11-10T15:42:14.530Z,9.31
2022-11-10T15:45:35.646Z,9.17
2022-11-10T15:48:56.693Z,9.04
2022-11-10T15:52:20.974Z,8.97
2022-11-10T15:55:43.441Z,8.96
2022-11-10T15:59:04.268Z,8.98
2022-11-10T16:02:26.519Z,8.80
2022-11-10T16:05:48.532Z,8.76
2022-11-10T16:09:12.445Z,8.71
2022-11-10T16:12:40.228Z,8.59
2022-11-10T16:16:01.020Z,8.63
2022-11-10T16:19:21.896Z,8.60
2022-11-10T16:22:43.150Z,8.48
2022-11-10T16:26:04.329Z,8.36
2022-11-10T16:29:25.452Z,8.29
2022-11-10T16:32:46.357Z,8.28
2022-11-10T16:36:22.803Z,8.21
2022-11-10T16:39:44.645Z,8.13
2022-11-10T16:43:05.799Z,8.09
2022-11-10T16:46:28.162Z,8.12
2022-11-10T16:49:51.145Z,8.17
2022-11-10T16:53:18.127Z,8.20
2022-11-10T16:56:39.114Z,8.31
2022-11-10T17:00:00.734Z,8.30
2022-11-10T17:03:45.556Z,8.28
2022-11-10T17:07:16.317Z,8.27
2022-11-10T17:10:37.774Z,8.29
2022-11-10T17:13:58.739Z,8.38
2022-11-10T17:17:20.214Z,8.46
2022-11-10T17:20:43.825Z,8.66
2022-11-10T17:24:05.393Z,8.53
2022-11-10T17:27:32.757Z,8.51
2022-11-10T17:30:56.959Z,8.48
2022-11-10T17:34:19.843Z,8.50
2022-11-10T17:37:41.571Z,8.45
2022-11-10T17:41:02.295Z,8.48
2022-11-10T17:44:23.893Z,8.41
2022-11-10T17:47:45.390Z,8.32
2022-11-10T17:51:09.525Z,8.33
2022-11-10T17:54:30.373Z,8.32
2022-11-10T17:57:51.951Z,8.30
2022-11-10T18:01:22.470Z,8.28
2022-11-10T18:04:43.808Z,8.32
2022-11-10T18:08:07.423Z,8.29
2022-11-10T18:11:28.192Z,8.31
2022-11-10T18:14:48.899Z,8.29
2022-11-10T18:18:17.947Z,8.25
2022-11-10T18:21:38.912Z,8.26
2022-11-10T18:24:59.947Z,8.27
2022-11-10T18:28:20.549Z,8.25
2022-11-10T18:31:41.449Z,8.20
2022-11-10T18:35:02.141Z,8.16
2022-11-10T18:38:23.167Z,8.11
2022-11-10T18:41:49.764Z,8.05
2022-11-10T18:45:11.530Z,8.03
2022-11-10T18:48:37.120Z,8.01
2022-11-10T18:51:58.741Z,7.98
2022-11-10T18:55:22.930Z,7.93
2022-11-10T18:58:43.874Z,7.90
2022-11-10T19:02:05.456Z,7.87
2022-11-10T19:05:26.328Z,7.86
2022-11-10T19:08:47.996Z,7.84
2022-11-10T19:12:08.809Z,7.77
2022-11-10T19:15:29.987Z,7.72
2022-11-10T19:18:50.984Z,7.72
2022-11-10T19:22:15.360Z,7.56
2022-11-10T19:25:37.582Z,7.51
2022-11-10T19:29:04.616Z,7.41
2022-11-10T19:32:25.936Z,7.33
2022-11-10T19:35:46.895Z,7.26
2022-11-10T19:39:10.916Z,7.09
2022-11-10T19:42:33.595Z,6.98
2022-11-10T19:45:54.156Z,6.96
2022-11-10T19:49:14.889Z,6.98
2022-11-10T19:52:36.209Z,6.91
2022-11-10T19:56:01.942Z,6.87
2022-11-10T19:59:23.028Z,6.82
2022-11-10T20:02:45.975Z,6.85
2022-11-10T20:06:10.117Z,6.65
2022-11-10T20:09:31.275Z,6.64
2022-11-10T20:12:51.949Z,6.60
2022-11-10T20:16:13.535Z,6.52
2022-11-10T20:19:41.112Z,6.50
2022-11-10T20:23:06.562Z,6.46
2022-11-10T20:26:27.388Z,6.31
2022-11-10T20:29:49.238Z,6.27
2022-11-10T20:33:10.344Z,6.24
2022-11-10T20:36:31.931Z,6.21
2022-11-10T20:39:52.595Z,6.22
2022-11-10T20:43:14.990Z,6.23
2022-11-10T20:50:23.086Z,5.96
2022-11-10T20:53:46.526Z,5.97
2022-11-10T20:57:07.071Z,5.98
2022-11-10T21:00:27.482Z,6.00
2022-11-10T21:03:48.269Z,6.23
2022-11-10T21:07:09.737Z,6.32
2022-11-10T21:10:31.061Z,6.27
2022-11-10T21:13:52.321Z,6.16
2022-11-10T21:17:14.061Z,6.15
2022-11-10T21:20:35.344Z,6.26
2022-11-10T21:23:57.634Z,6.21
2022-11-10T21:27:22.035Z,6.22
2022-11-10T21:30:43.029Z,6.25
2022-11-10T21:34:03.717Z,6.23
2022-11-10T21:37:27.147Z,6.00
2022-11-10T21:40:47.661Z,6.14
2022-11-10T21:44:09.277Z,6.09
2022-11-10T21:47:34.347Z,6.12
2022-11-10T21:51:01.125Z,6.08
2022-11-10T21:54:21.536Z,6.07
2022-11-10T21:57:42.231Z,6.12
2022-11-10T22:01:14.442Z,6.23
2022-11-10T22:04:37.536Z,6.16
2022-11-10T22:07:58.291Z,5.98
2022-11-10T22:11:39.163Z,5.86
2022-11-10T22:15:18.117Z,5.85
2022-11-10T22:18:39.748Z,6.06
2022-11-10T22:22:03.683Z,6.08
2022-11-10T22:25:24.903Z,5.95
2022-11-10T22:28:45.961Z,5.90
2022-11-10T22:32:06.635Z,5.88
2022-11-10T22:35:45.958Z,6.05
2022-11-10T22:39:07.324Z,5.96
2022-11-10T22:42:46.645Z,6.06
2022-11-10T22:46:07.061Z,6.15
2022-11-10T22:49:27.428Z,5.98
2022-11-10T22:52:47.989Z,5.74
2022-11-10T22:56:08.370Z,5.72
2022-11-10T22:59:28.968Z,5.78
2022-11-10T23:02:52.481Z,5.90
2022-11-10T23:06:13.855Z,5.91
2022-11-10T23:09:35.125Z,5.90
2022-11-10T23:12:55.721Z,5.89
2022-11-10T23:16:26.024Z,5.82
2022-11-10T23:19:46.645Z,5.74
2022-11-10T23:23:07.149Z,5.64
2022-11-10T23:26:34.007Z,5.64
2022-11-10T23:29:54.604Z,5.64
2022-11-10T23:33:15.378Z,5.56
2022-11-10T23:36:36.438Z,5.54
2022-11-10T23:39:57.021Z,5.58
2022-11-10T23:43:17.383Z,5.58
2022-11-10T23:46:37.942Z,5.58
2022-11-10T23:49:58.445Z,5.70
2022-11-10T23:53:20.011Z,5.85
2022-11-10T23:56:40.801Z,5.81
